sensor_id;sensor_type;location;lat;lon;timestamp;P1;durP1;ratioP1;P2;durP2;ratioP2
73456;SDS011;61691;53.072;6.582;2022-12-18T00:01:29;63.13;;;28.77;;
73456;SDS011;61691;53.072;6.582;2022-12-18T00:04:00;64.45;;;28.48;;
73456;SDS011;61691;53.072;6.582;2022-12-18T00:06:28;69.32;;;29.83;;
73456;SDS011;61691;53.072;6.582;2022-12-18T00:08:57;67.07;;;32.03;;
73456;SDS011;61691;53.072;6.582;2022-12-18T00:11:25;64.88;;;28.67;;
73456;SDS011;61691;53.072;6.582;2022-12-18T00:13:56;62.28;;;28.73;;
73456;SDS011;61691;53.072;6.582;2022-12-18T00:16:26;67.53;;;28.83;;
73456;SDS011;61691;53.072;6.582;2022-12-18T00:18:55;66.85;;;30.35;;
73456;SDS011;61691;53.072;6.582;2022-12-18T00:21:24;63.95;;;29.48;;
73456;SDS011;61691;53.072;6.582;2022-12-18T00:23:52;63.90;;;28.35;;
73456;SDS011;61691;53.072;6.582;2022-12-18T00:26:23;71.15;;;29.48;;
73456;SDS011;61691;53.072;6.582;2022-12-18T00:28:57;64.03;;;27.33;;
73456;SDS011;61691;53.072;6.582;2022-12-18T00:31:26;58.33;;;27.33;;
73456;SDS011;61691;53.072;6.582;2022-12-18T00:33:54;59.83;;;28.45;;
73456;SDS011;61691;53.072;6.582;2022-12-18T00:36:23;54.83;;;25.08;;
73456;SDS011;61691;53.072;6.582;2022-12-18T00:38:52;57.53;;;28.50;;
73456;SDS011;61691;53.072;6.582;2022-12-18T00:41:20;59.45;;;27.65;;
73456;SDS011;61691;53.072;6.582;2022-12-18T00:44:07;59.90;;;27.52;;
73456;SDS011;61691;53.072;6.582;2022-12-18T00:46:35;55.75;;;26.92;;
73456;SDS011;61691;53.072;6.582;2022-12-18T00:49:02;62.45;;;29.02;;
73456;SDS011;61691;53.072;6.582;2022-12-18T00:51:30;57.88;;;26.08;;
73456;SDS011;61691;53.072;6.582;2022-12-18T00:53:57;58.33;;;26.27;;
73456;SDS011;61691;53.072;6.582;2022-12-18T00:56:23;56.05;;;26.50;;
73456;SDS011;61691;53.072;6.582;2022-12-18T00:58:50;57.13;;;26.52;;
73456;SDS011;61691;53.072;6.582;2022-12-18T01:01:18;63.85;;;30.08;;
73456;SDS011;61691;53.072;6.582;2022-12-18T01:03:45;60.53;;;28.25;;
73456;SDS011;61691;53.072;6.582;2022-12-18T01:06:13;58.03;;;27.35;;
73456;SDS011;61691;53.072;6.582;2022-12-18T01:08:41;62.25;;;29.73;;
73456;SDS011;61691;53.072;6.582;2022-12-18T01:11:08;60.15;;;28.50;;
73456;SDS011;61691;53.072;6.582;2022-12-18T01:13:38;61.90;;;28.30;;
73456;SDS011;61691;53.072;6.582;2022-12-18T01:16:06;63.15;;;29.30;;
73456;SDS011;61691;53.072;6.582;2022-12-18T01:18:33;64.00;;;27.52;;
73456;SDS011;61691;53.072;6.582;2022-12-18T01:21:00;59.60;;;29.13;;
73456;SDS011;61691;53.072;6.582;2022-12-18T01:23:32;60.42;;;29.40;;
73456;SDS011;61691;53.072;6.582;2022-12-18T01:26:03;61.17;;;27.55;;
73456;SDS011;61691;53.072;6.582;2022-12-18T01:28:31;58.67;;;28.08;;
73456;SDS011;61691;53.072;6.582;2022-12-18T01:31:08;58.88;;;26.90;;
73456;SDS011;61691;53.072;6.582;2022-12-18T01:33:41;59.90;;;27.98;;
73456;SDS011;61691;53.072;6.582;2022-12-18T01:36:13;64.38;;;27.25;;
73456;SDS011;61691;53.072;6.582;2022-12-18T01:38:48;62.92;;;25.73;;
73456;SDS011;61691;53.072;6.582;2022-12-18T01:41:16;64.97;;;29.05;;
73456;SDS011;61691;53.072;6.582;2022-12-18T01:43:46;57.38;;;27.00;;
73456;SDS011;61691;53.072;6.582;2022-12-18T01:46:21;64.55;;;27.65;;
73456;SDS011;61691;53.072;6.582;2022-12-18T01:48:53;61.35;;;26.48;;
73456;SDS011;61691;53.072;6.582;2022-12-18T01:51:24;60.72;;;26.98;;
73456;SDS011;61691;53.072;6.582;2022-12-18T01:53:53;56.15;;;26.08;;
73456;SDS011;61691;53.072;6.582;2022-12-18T01:56:20;60.78;;;26.92;;
73456;SDS011;61691;53.072;6.582;2022-12-18T01:58:55;59.47;;;26.33;;
73456;SDS011;61691;53.072;6.582;2022-12-18T02:01:26;58.15;;;26.00;;
73456;SDS011;61691;53.072;6.582;2022-12-18T02:03:55;60.00;;;27.63;;
73456;SDS011;61691;53.072;6.582;2022-12-18T02:06:29;67.18;;;30.08;;
73456;SDS011;61691;53.072;6.582;2022-12-18T02:09:08;66.60;;;27.88;;
73456;SDS011;61691;53.072;6.582;2022-12-18T02:14:34;61.28;;;27.00;;
73456;SDS011;61691;53.072;6.582;2022-12-18T02:17:25;60.58;;;29.48;;
73456;SDS011;61691;53.072;6.582;2022-12-18T02:23:18;60.25;;;28.13;;
73456;SDS011;61691;53.072;6.582;2022-12-18T02:26:01;62.80;;;26.58;;
73456;SDS011;61691;53.072;6.582;2022-12-18T02:28:38;66.30;;;28.25;;
73456;SDS011;61691;53.072;6.582;2022-12-18T02:31:10;61.50;;;28.00;;
73456;SDS011;61691;53.072;6.582;2022-12-18T02:33:40;60.53;;;28.15;;
73456;SDS011;61691;53.072;6.582;2022-12-18T02:36:10;65.50;;;27.55;;
73456;SDS011;61691;53.072;6.582;2022-12-18T02:38:41;67.20;;;30.42;;
73456;SDS011;61691;53.072;6.582;2022-12-18T02:41:09;70.60;;;29.52;;
73456;SDS011;61691;53.072;6.582;2022-12-18T02:43:36;64.68;;;26.88;;
73456;SDS011;61691;53.072;6.582;2022-12-18T02:49:31;60.83;;;28.75;;
73456;SDS011;61691;53.072;6.582;2022-12-18T02:57:52;57.20;;;28.13;;
73456;SDS011;61691;53.072;6.582;2022-12-18T03:00:23;60.60;;;29.58;;
73456;SDS011;61691;53.072;6.582;2022-12-18T03:03:14;62.33;;;28.60;;
73456;SDS011;61691;53.072;6.582;2022-12-18T03:05:53;60.00;;;28.67;;
73456;SDS011;61691;53.072;6.582;2022-12-18T03:08:33;59.67;;;29.58;;
73456;SDS011;61691;53.072;6.582;2022-12-18T03:11:06;64.60;;;30.40;;
73456;SDS011;61691;53.072;6.582;2022-12-18T03:13:49;59.10;;;27.95;;
73456;SDS011;61691;53.072;6.582;2022-12-18T03:16:23;60.78;;;30.15;;
73456;SDS011;61691;53.072;6.582;2022-12-18T03:18:58;57.05;;;26.40;;
73456;SDS011;61691;53.072;6.582;2022-12-18T03:21:44;64.95;;;28.95;;
73456;SDS011;61691;53.072;6.582;2022-12-18T03:24:13;65.13;;;28.08;;
73456;SDS011;61691;53.072;6.582;2022-12-18T03:26:44;62.92;;;28.00;;
73456;SDS011;61691;53.072;6.582;2022-12-18T03:29:15;63.45;;;28.85;;
73456;SDS011;61691;53.072;6.582;2022-12-18T03:34:23;63.85;;;29.20;;
73456;SDS011;61691;53.072;6.582;2022-12-18T03:37:02;63.58;;;29.42;;
73456;SDS011;61691;53.072;6.582;2022-12-18T03:39:30;62.20;;;27.13;;
73456;SDS011;61691;53.072;6.582;2022-12-18T03:44:35;63.78;;;28.00;;
73456;SDS011;61691;53.072;6.582;2022-12-18T03:47:19;62.63;;;27.02;;
73456;SDS011;61691;53.072;6.582;2022-12-18T03:55:32;60.55;;;27.23;;
73456;SDS011;61691;53.072;6.582;2022-12-18T03:58:01;61.65;;;27.58;;
73456;SDS011;61691;53.072;6.582;2022-12-18T04:00:30;59.13;;;27.33;;
73456;SDS011;61691;53.072;6.582;2022-12-18T04:02:58;57.47;;;26.17;;
73456;SDS011;61691;53.072;6.582;2022-12-18T04:05:27;63.58;;;28.77;;
73456;SDS011;61691;53.072;6.582;2022-12-18T04:07:56;59.58;;;25.63;;
73456;SDS011;61691;53.072;6.582;2022-12-18T04:10:23;57.35;;;25.67;;
73456;SDS011;61691;53.072;6.582;2022-12-18T04:12:50;56.38;;;26.33;;
73456;SDS011;61691;53.072;6.582;2022-12-18T04:15:21;63.22;;;26.58;;
73456;SDS011;61691;53.072;6.582;2022-12-18T04:17:48;56.53;;;27.08;;
73456;SDS011;61691;53.072;6.582;2022-12-18T04:20:16;58.90;;;26.95;;
73456;SDS011;61691;53.072;6.582;2022-12-18T04:22:43;60.03;;;26.88;;
73456;SDS011;61691;53.072;6.582;2022-12-18T04:25:11;58.15;;;24.67;;
73456;SDS011;61691;53.072;6.582;2022-12-18T04:27:38;63.50;;;28.67;;
73456;SDS011;61691;53.072;6.582;2022-12-18T04:30:05;59.38;;;26.98;;
73456;SDS011;61691;53.072;6.582;2022-12-18T04:32:33;65.13;;;28.50;;
73456;SDS011;61691;53.072;6.582;2022-12-18T04:35:01;56.17;;;25.33;;
73456;SDS011;61691;53.072;6.582;2022-12-18T04:37:28;61.28;;;26.27;;
73456;SDS011;61691;53.072;6.582;2022-12-18T04:39:55;56.72;;;26.20;;
73456;SDS011;61691;53.072;6.582;2022-12-18T04:42:21;58.33;;;27.13;;
73456;SDS011;61691;53.072;6.582;2022-12-18T04:44:48;57.17;;;26.10;;
73456;SDS011;61691;53.072;6.582;2022-12-18T04:47:15;52.20;;;22.48;;
73456;SDS011;61691;53.072;6.582;2022-12-18T04:49:41;62.08;;;25.75;;
73456;SDS011;61691;53.072;6.582;2022-12-18T04:52:08;56.85;;;26.25;;
73456;SDS011;61691;53.072;6.582;2022-12-18T04:54:35;55.40;;;24.65;;
73456;SDS011;61691;53.072;6.582;2022-12-18T04:57:02;62.78;;;26.77;;
73456;SDS011;61691;53.072;6.582;2022-12-18T04:59:28;56.72;;;26.33;;
73456;SDS011;61691;53.072;6.582;2022-12-18T05:01:55;61.70;;;26.92;;
73456;SDS011;61691;53.072;6.582;2022-12-18T05:04:22;56.45;;;26.00;;
73456;SDS011;61691;53.072;6.582;2022-12-18T05:06:49;52.65;;;25.10;;
73456;SDS011;61691;53.072;6.582;2022-12-18T05:09:15;49.63;;;24.60;;
73456;SDS011;61691;53.072;6.582;2022-12-18T05:11:44;48.58;;;22.42;;
73456;SDS011;61691;53.072;6.582;2022-12-18T05:14:11;53.60;;;23.17;;
73456;SDS011;61691;53.072;6.582;2022-12-18T05:16:38;55.78;;;24.52;;
73456;SDS011;61691;53.072;6.582;2022-12-18T05:19:05;51.47;;;23.45;;
73456;SDS011;61691;53.072;6.582;2022-12-18T05:21:32;47.63;;;20.90;;
73456;SDS011;61691;53.072;6.582;2022-12-18T05:23:59;50.15;;;22.90;;
73456;SDS011;61691;53.072;6.582;2022-12-18T05:26:25;48.03;;;22.05;;
73456;SDS011;61691;53.072;6.582;2022-12-18T05:28:52;52.25;;;23.90;;
73456;SDS011;61691;53.072;6.582;2022-12-18T05:31:19;55.80;;;21.90;;
73456;SDS011;61691;53.072;6.582;2022-12-18T05:33:46;50.72;;;23.13;;
73456;SDS011;61691;53.072;6.582;2022-12-18T05:36:12;45.70;;;21.27;;
73456;SDS011;61691;53.072;6.582;2022-12-18T05:38:39;52.50;;;22.25;;
73456;SDS011;61691;53.072;6.582;2022-12-18T05:41:07;49.83;;;21.88;;
73456;SDS011;61691;53.072;6.582;2022-12-18T05:43:35;47.72;;;22.13;;
73456;SDS011;61691;53.072;6.582;2022-12-18T05:46:14;47.83;;;20.97;;
73456;SDS011;61691;53.072;6.582;2022-12-18T05:48:42;41.45;;;19.90;;
73456;SDS011;61691;53.072;6.582;2022-12-18T05:51:10;41.88;;;20.05;;
73456;SDS011;61691;53.072;6.582;2022-12-18T05:53:39;40.63;;;18.97;;
73456;SDS011;61691;53.072;6.582;2022-12-18T05:56:08;42.22;;;19.02;;
73456;SDS011;61691;53.072;6.582;2022-12-18T05:58:37;44.03;;;21.00;;
73456;SDS011;61691;53.072;6.582;2022-12-18T06:01:08;42.95;;;19.77;;
73456;SDS011;61691;53.072;6.582;2022-12-18T06:03:42;41.70;;;19.60;;
73456;SDS011;61691;53.072;6.582;2022-12-18T06:06:27;40.30;;;17.85;;
73456;SDS011;61691;53.072;6.582;2022-12-18T06:08:55;42.90;;;19.73;;
73456;SDS011;61691;53.072;6.582;2022-12-18T06:11:24;50.42;;;18.95;;
73456;SDS011;61691;53.072;6.582;2022-12-18T06:13:53;42.17;;;19.20;;
73456;SDS011;61691;53.072;6.582;2022-12-18T06:16:25;36.35;;;18.13;;
73456;SDS011;61691;53.072;6.582;2022-12-18T06:18:57;41.40;;;19.65;;
73456;SDS011;61691;53.072;6.582;2022-12-18T06:21:25;45.05;;;19.33;;
73456;SDS011;61691;53.072;6.582;2022-12-18T06:23:52;40.53;;;19.17;;
73456;SDS011;61691;53.072;6.582;2022-12-18T06:26:18;40.72;;;19.77;;
73456;SDS011;61691;53.072;6.582;2022-12-18T06:28:53;42.55;;;19.67;;
73456;SDS011;61691;53.072;6.582;2022-12-18T06:31:20;41.17;;;18.95;;
73456;SDS011;61691;53.072;6.582;2022-12-18T06:33:46;43.45;;;18.75;;
73456;SDS011;61691;53.072;6.582;2022-12-18T06:36:13;40.42;;;18.75;;
73456;SDS011;61691;53.072;6.582;2022-12-18T06:38:41;41.70;;;19.98;;
73456;SDS011;61691;53.072;6.582;2022-12-18T06:41:10;40.85;;;18.10;;
73456;SDS011;61691;53.072;6.582;2022-12-18T06:43:41;39.92;;;19.10;;
73456;SDS011;61691;53.072;6.582;2022-12-18T06:46:09;39.80;;;17.33;;
73456;SDS011;61691;53.072;6.582;2022-12-18T06:48:36;39.28;;;18.95;;
73456;SDS011;61691;53.072;6.582;2022-12-18T06:51:03;37.10;;;17.15;;
73456;SDS011;61691;53.072;6.582;2022-12-18T06:53:31;37.58;;;17.65;;
73456;SDS011;61691;53.072;6.582;2022-12-18T06:55:59;34.60;;;15.63;;
73456;SDS011;61691;53.072;6.582;2022-12-18T06:58:36;35.70;;;17.02;;
73456;SDS011;61691;53.072;6.582;2022-12-18T07:01:04;39.05;;;18.52;;
73456;SDS011;61691;53.072;6.582;2022-12-18T07:03:32;36.95;;;17.05;;
73456;SDS011;61691;53.072;6.582;2022-12-18T07:05:59;37.42;;;18.08;;
73456;SDS011;61691;53.072;6.582;2022-12-18T07:08:26;38.22;;;17.33;;
73456;SDS011;61691;53.072;6.582;2022-12-18T07:10:53;39.88;;;17.65;;
73456;SDS011;61691;53.072;6.582;2022-12-18T07:13:22;38.38;;;18.00;;
73456;SDS011;61691;53.072;6.582;2022-12-18T07:15:49;36.67;;;17.17;;
73456;SDS011;61691;53.072;6.582;2022-12-18T07:18:16;36.47;;;17.65;;
73456;SDS011;61691;53.072;6.582;2022-12-18T07:20:43;37.08;;;18.50;;
73456;SDS011;61691;53.072;6.582;2022-12-18T07:23:11;38.60;;;19.23;;
73456;SDS011;61691;53.072;6.582;2022-12-18T07:25:38;37.28;;;16.20;;
73456;SDS011;61691;53.072;6.582;2022-12-18T07:28:05;34.63;;;15.90;;
73456;SDS011;61691;53.072;6.582;2022-12-18T07:30:37;35.22;;;16.83;;
73456;SDS011;61691;53.072;6.582;2022-12-18T07:33:04;35.80;;;17.92;;
73456;SDS011;61691;53.072;6.582;2022-12-18T07:35:32;38.40;;;17.50;;
73456;SDS011;61691;53.072;6.582;2022-12-18T07:37:59;38.17;;;17.55;;
73456;SDS011;61691;53.072;6.582;2022-12-18T07:40:26;38.58;;;17.58;;
73456;SDS011;61691;53.072;6.582;2022-12-18T07:42:53;37.72;;;17.35;;
73456;SDS011;61691;53.072;6.582;2022-12-18T07:45:20;34.92;;;15.88;;
73456;SDS011;61691;53.072;6.582;2022-12-18T07:47:46;35.92;;;16.77;;
73456;SDS011;61691;53.072;6.582;2022-12-18T07:50:13;36.15;;;16.80;;
73456;SDS011;61691;53.072;6.582;2022-12-18T07:52:40;33.63;;;15.95;;
73456;SDS011;61691;53.072;6.582;2022-12-18T07:55:07;37.08;;;16.23;;
73456;SDS011;61691;53.072;6.582;2022-12-18T07:57:34;37.38;;;17.15;;
73456;SDS011;61691;53.072;6.582;2022-12-18T08:00:17;35.33;;;16.40;;
73456;SDS011;61691;53.072;6.582;2022-12-18T08:02:44;35.20;;;16.38;;
73456;SDS011;61691;53.072;6.582;2022-12-18T08:05:11;33.17;;;16.08;;
73456;SDS011;61691;53.072;6.582;2022-12-18T08:07:38;35.72;;;17.35;;
73456;SDS011;61691;53.072;6.582;2022-12-18T08:10:05;39.75;;;22.02;;
73456;SDS011;61691;53.072;6.582;2022-12-18T08:12:32;35.72;;;18.02;;
73456;SDS011;61691;53.072;6.582;2022-12-18T08:15:00;35.92;;;17.35;;
73456;SDS011;61691;53.072;6.582;2022-12-18T08:17:28;36.45;;;17.02;;
73456;SDS011;61691;53.072;6.582;2022-12-18T08:19:54;33.72;;;15.50;;
73456;SDS011;61691;53.072;6.582;2022-12-18T08:22:21;33.13;;;17.27;;
73456;SDS011;61691;53.072;6.582;2022-12-18T08:24:48;31.42;;;15.35;;
73456;SDS011;61691;53.072;6.582;2022-12-18T08:27:15;31.10;;;14.52;;
73456;SDS011;61691;53.072;6.582;2022-12-18T08:29:57;34.97;;;17.20;;
73456;SDS011;61691;53.072;6.582;2022-12-18T08:32:25;30.52;;;15.23;;
73456;SDS011;61691;53.072;6.582;2022-12-18T08:34:53;34.25;;;16.73;;
73456;SDS011;61691;53.072;6.582;2022-12-18T08:37:20;33.55;;;16.20;;
73456;SDS011;61691;53.072;6.582;2022-12-18T08:39:47;31.02;;;15.20;;
73456;SDS011;61691;53.072;6.582;2022-12-18T08:42:14;31.63;;;15.02;;
73456;SDS011;61691;53.072;6.582;2022-12-18T08:44:59;30.02;;;14.15;;
73456;SDS011;61691;53.072;6.582;2022-12-18T08:47:26;31.35;;;15.13;;
73456;SDS011;61691;53.072;6.582;2022-12-18T08:49:52;33.03;;;15.52;;
73456;SDS011;61691;53.072;6.582;2022-12-18T08:52:19;29.90;;;13.73;;
73456;SDS011;61691;53.072;6.582;2022-12-18T08:54:46;31.35;;;15.07;;
73456;SDS011;61691;53.072;6.582;2022-12-18T08:57:13;30.73;;;14.60;;
73456;SDS011;61691;53.072;6.582;2022-12-18T08:59:40;31.23;;;15.43;;
73456;SDS011;61691;53.072;6.582;2022-12-18T09:02:07;29.45;;;14.88;;
73456;SDS011;61691;53.072;6.582;2022-12-18T09:04:37;28.77;;;14.73;;
73456;SDS011;61691;53.072;6.582;2022-12-18T09:07:03;27.48;;;12.77;;
73456;SDS011;61691;53.072;6.582;2022-12-18T09:09:30;27.75;;;13.50;;
73456;SDS011;61691;53.072;6.582;2022-12-18T09:11:57;27.23;;;12.85;;
73456;SDS011;61691;53.072;6.582;2022-12-18T09:14:24;27.27;;;12.88;;
73456;SDS011;61691;53.072;6.582;2022-12-18T09:16:50;28.08;;;13.07;;
73456;SDS011;61691;53.072;6.582;2022-12-18T09:19:17;29.63;;;12.35;;
73456;SDS011;61691;53.072;6.582;2022-12-18T09:21:44;27.48;;;13.75;;
73456;SDS011;61691;53.072;6.582;2022-12-18T09:24:14;31.27;;;13.75;;
73456;SDS011;61691;53.072;6.582;2022-12-18T09:26:41;27.80;;;11.88;;
73456;SDS011;61691;53.072;6.582;2022-12-18T09:29:12;25.92;;;12.52;;
73456;SDS011;61691;53.072;6.582;2022-12-18T09:31:41;25.30;;;11.88;;
73456;SDS011;61691;53.072;6.582;2022-12-18T09:34:08;24.67;;;11.02;;
73456;SDS011;61691;53.072;6.582;2022-12-18T09:36:35;25.65;;;11.55;;
73456;SDS011;61691;53.072;6.582;2022-12-18T09:39:02;25.58;;;11.10;;
73456;SDS011;61691;53.072;6.582;2022-12-18T09:44:31;26.52;;;11.30;;
73456;SDS011;61691;53.072;6.582;2022-12-18T09:47:18;23.80;;;10.43;;
73456;SDS011;61691;53.072;6.582;2022-12-18T09:49:50;24.42;;;11.65;;
73456;SDS011;61691;53.072;6.582;2022-12-18T09:52:23;25.83;;;10.10;;
73456;SDS011;61691;53.072;6.582;2022-12-18T09:54:56;25.13;;;10.23;;
73456;SDS011;61691;53.072;6.582;2022-12-18T09:57:28;23.38;;;10.18;;
73456;SDS011;61691;53.072;6.582;2022-12-18T10:00:03;22.25;;;9.48;;
73456;SDS011;61691;53.072;6.582;2022-12-18T10:02:36;21.50;;;9.45;;
73456;SDS011;61691;53.072;6.582;2022-12-18T10:16:00;20.88;;;8.95;;
73456;SDS011;61691;53.072;6.582;2022-12-18T10:18:39;20.33;;;8.25;;
73456;SDS011;61691;53.072;6.582;2022-12-18T10:24:32;20.30;;;8.13;;
73456;SDS011;61691;53.072;6.582;2022-12-18T10:27:22;22.75;;;9.73;;
73456;SDS011;61691;53.072;6.582;2022-12-18T10:29:52;21.30;;;9.32;;
73456;SDS011;61691;53.072;6.582;2022-12-18T10:32:21;23.23;;;9.52;;
73456;SDS011;61691;53.072;6.582;2022-12-18T10:34:55;21.80;;;8.48;;
73456;SDS011;61691;53.072;6.582;2022-12-18T10:37:27;21.08;;;8.70;;
73456;SDS011;61691;53.072;6.582;2022-12-18T10:40:14;22.30;;;10.00;;
73456;SDS011;61691;53.072;6.582;2022-12-18T10:43:02;23.67;;;9.32;;
73456;SDS011;61691;53.072;6.582;2022-12-18T10:45:37;24.77;;;9.40;;
73456;SDS011;61691;53.072;6.582;2022-12-18T10:48:04;22.58;;;9.77;;
73456;SDS011;61691;53.072;6.582;2022-12-18T10:50:45;22.80;;;9.65;;
73456;SDS011;61691;53.072;6.582;2022-12-18T10:53:38;23.60;;;9.30;;
73456;SDS011;61691;53.072;6.582;2022-12-18T10:56:08;21.85;;;9.50;;
73456;SDS011;61691;53.072;6.582;2022-12-18T10:58:36;23.52;;;9.52;;
73456;SDS011;61691;53.072;6.582;2022-12-18T11:03:40;21.10;;;8.20;;
73456;SDS011;61691;53.072;6.582;2022-12-18T11:06:28;20.85;;;7.97;;
73456;SDS011;61691;53.072;6.582;2022-12-18T11:12:02;20.38;;;8.13;;
73456;SDS011;61691;53.072;6.582;2022-12-18T11:14:51;21.45;;;8.18;;
73456;SDS011;61691;53.072;6.582;2022-12-18T11:19:58;19.65;;;8.32;;
73456;SDS011;61691;53.072;6.582;2022-12-18T11:22:28;20.23;;;8.05;;
73456;SDS011;61691;53.072;6.582;2022-12-18T11:25:00;21.90;;;8.38;;
73456;SDS011;61691;53.072;6.582;2022-12-18T11:27:55;19.58;;;7.75;;
73456;SDS011;61691;53.072;6.582;2022-12-18T11:33:18;19.83;;;8.60;;
73456;SDS011;61691;53.072;6.582;2022-12-18T11:35:49;20.92;;;8.45;;
73456;SDS011;61691;53.072;6.582;2022-12-18T11:38:27;19.13;;;7.60;;
73456;SDS011;61691;53.072;6.582;2022-12-18T11:49:55;19.52;;;7.20;;
73456;SDS011;61691;53.072;6.582;2022-12-18T11:52:34;20.52;;;6.80;;
73456;SDS011;61691;53.072;6.582;2022-12-18T11:55:09;18.25;;;6.90;;
73456;SDS011;61691;53.072;6.582;2022-12-18T11:58:00;19.90;;;7.22;;
73456;SDS011;61691;53.072;6.582;2022-12-18T12:00:42;19.25;;;6.93;;
73456;SDS011;61691;53.072;6.582;2022-12-18T12:19:53;18.80;;;6.65;;
73456;SDS011;61691;53.072;6.582;2022-12-18T12:25:18;19.58;;;7.43;;
73456;SDS011;61691;53.072;6.582;2022-12-18T12:28:06;18.15;;;5.90;;
73456;SDS011;61691;53.072;6.582;2022-12-18T12:30:58;18.00;;;6.30;;
73456;SDS011;61691;53.072;6.582;2022-12-18T12:37:03;16.92;;;5.68;;
73456;SDS011;61691;53.072;6.582;2022-12-18T12:39:31;16.67;;;5.68;;
73456;SDS011;61691;53.072;6.582;2022-12-18T12:42:08;17.20;;;5.40;;
73456;SDS011;61691;53.072;6.582;2022-12-18T12:45:00;17.92;;;5.82;;
73456;SDS011;61691;53.072;6.582;2022-12-18T12:47:32;19.38;;;6.97;;
73456;SDS011;61691;53.072;6.582;2022-12-18T12:50:04;17.40;;;6.53;;
73456;SDS011;61691;53.072;6.582;2022-12-18T12:52:51;18.13;;;6.60;;
73456;SDS011;61691;53.072;6.582;2022-12-18T12:55:25;17.45;;;5.55;;
73456;SDS011;61691;53.072;6.582;2022-12-18T12:57:59;17.50;;;6.38;;
73456;SDS011;61691;53.072;6.582;2022-12-18T13:00:46;19.23;;;6.18;;
73456;SDS011;61691;53.072;6.582;2022-12-18T13:06:16;17.25;;;5.18;;
73456;SDS011;61691;53.072;6.582;2022-12-18T13:08:58;17.83;;;7.03;;
73456;SDS011;61691;53.072;6.582;2022-12-18T13:14:22;16.35;;;5.10;;
73456;SDS011;61691;53.072;6.582;2022-12-18T13:17:09;16.77;;;5.60;;
73456;SDS011;61691;53.072;6.582;2022-12-18T13:19:49;16.60;;;6.05;;
73456;SDS011;61691;53.072;6.582;2022-12-18T13:22:31;17.90;;;6.50;;
73456;SDS011;61691;53.072;6.582;2022-12-18T13:38:23;17.33;;;5.93;;
73456;SDS011;61691;53.072;6.582;2022-12-18T13:41:00;18.63;;;5.97;;
73456;SDS011;61691;53.072;6.582;2022-12-18T13:43:46;17.27;;;5.28;;
73456;SDS011;61691;53.072;6.582;2022-12-18T13:51:24;19.48;;;7.10;;
73456;SDS011;61691;53.072;6.582;2022-12-18T13:53:54;17.13;;;6.03;;
73456;SDS011;61691;53.072;6.582;2022-12-18T13:56:24;17.80;;;6.25;;
73456;SDS011;61691;53.072;6.582;2022-12-18T13:59:03;17.15;;;5.63;;
73456;SDS011;61691;53.072;6.582;2022-12-18T14:01:32;17.10;;;5.60;;
73456;SDS011;61691;53.072;6.582;2022-12-18T14:04:09;18.13;;;6.22;;
73456;SDS011;61691;53.072;6.582;2022-12-18T14:06:37;16.50;;;5.65;;
73456;SDS011;61691;53.072;6.582;2022-12-18T14:09:05;18.75;;;6.10;;
73456;SDS011;61691;53.072;6.582;2022-12-18T14:11:34;17.30;;;5.47;;
73456;SDS011;61691;53.072;6.582;2022-12-18T14:14:03;17.92;;;5.78;;
73456;SDS011;61691;53.072;6.582;2022-12-18T14:16:33;21.65;;;6.13;;
73456;SDS011;61691;53.072;6.582;2022-12-18T14:19:02;20.65;;;7.47;;
73456;SDS011;61691;53.072;6.582;2022-12-18T14:21:44;27.13;;;10.65;;
73456;SDS011;61691;53.072;6.582;2022-12-18T14:24:17;23.85;;;8.15;;
73456;SDS011;61691;53.072;6.582;2022-12-18T14:26:47;18.63;;;6.38;;
73456;SDS011;61691;53.072;6.582;2022-12-18T14:34:51;17.67;;;6.60;;
73456;SDS011;61691;53.072;6.582;2022-12-18T14:37:23;18.20;;;6.22;;
73456;SDS011;61691;53.072;6.582;2022-12-18T14:39:59;18.58;;;6.20;;
73456;SDS011;61691;53.072;6.582;2022-12-18T14:42:36;18.00;;;6.53;;
73456;SDS011;61691;53.072;6.582;2022-12-18T14:48:15;17.10;;;5.70;;
73456;SDS011;61691;53.072;6.582;2022-12-18T14:51:02;18.95;;;6.00;;
73456;SDS011;61691;53.072;6.582;2022-12-18T14:53:35;18.20;;;6.22;;
73456;SDS011;61691;53.072;6.582;2022-12-18T14:56:13;18.70;;;6.93;;
73456;SDS011;61691;53.072;6.582;2022-12-18T14:58:44;19.13;;;7.53;;
73456;SDS011;61691;53.072;6.582;2022-12-18T15:01:19;18.40;;;6.80;;
73456;SDS011;61691;53.072;6.582;2022-12-18T15:03:52;19.05;;;7.25;;
73456;SDS011;61691;53.072;6.582;2022-12-18T15:06:25;19.90;;;7.20;;
73456;SDS011;61691;53.072;6.582;2022-12-18T15:08:55;18.73;;;7.70;;
73456;SDS011;61691;53.072;6.582;2022-12-18T15:11:45;19.38;;;7.07;;
73456;SDS011;61691;53.072;6.582;2022-12-18T15:16:56;20.67;;;6.95;;
73456;SDS011;61691;53.072;6.582;2022-12-18T15:19:43;19.00;;;7.28;;
73456;SDS011;61691;53.072;6.582;2022-12-18T15:25:00;19.75;;;7.70;;
73456;SDS011;61691;53.072;6.582;2022-12-18T15:27:33;19.88;;;8.05;;
73456;SDS011;61691;53.072;6.582;2022-12-18T15:30:03;20.15;;;7.68;;
73456;SDS011;61691;53.072;6.582;2022-12-18T15:32:44;19.35;;;7.78;;
73456;SDS011;61691;53.072;6.582;2022-12-18T15:35:20;19.02;;;7.47;;
73456;SDS011;61691;53.072;6.582;2022-12-18T15:37:49;20.23;;;8.70;;
73456;SDS011;61691;53.072;6.582;2022-12-18T15:40:26;21.45;;;7.90;;
73456;SDS011;61691;53.072;6.582;2022-12-18T15:42:53;20.63;;;7.53;;
73456;SDS011;61691;53.072;6.582;2022-12-18T15:45:40;20.95;;;7.53;;
73456;SDS011;61691;53.072;6.582;2022-12-18T15:48:22;19.67;;;7.78;;
73456;SDS011;61691;53.072;6.582;2022-12-18T15:50:52;19.65;;;7.50;;
73456;SDS011;61691;53.072;6.582;2022-12-18T15:53:23;19.52;;;7.28;;
73456;SDS011;61691;53.072;6.582;2022-12-18T15:55:53;20.13;;;7.93;;
73456;SDS011;61691;53.072;6.582;2022-12-18T15:58:39;20.50;;;7.55;;
73456;SDS011;61691;53.072;6.582;2022-12-18T16:01:07;19.95;;;7.88;;
73456;SDS011;61691;53.072;6.582;2022-12-18T16:03:35;19.23;;;8.02;;
73456;SDS011;61691;53.072;6.582;2022-12-18T16:06:03;19.90;;;7.45;;
73456;SDS011;61691;53.072;6.582;2022-12-18T16:08:30;20.98;;;7.72;;
73456;SDS011;61691;53.072;6.582;2022-12-18T16:10:57;19.65;;;7.45;;
73456;SDS011;61691;53.072;6.582;2022-12-18T16:13:24;21.45;;;8.43;;
73456;SDS011;61691;53.072;6.582;2022-12-18T16:15:51;19.33;;;7.97;;
73456;SDS011;61691;53.072;6.582;2022-12-18T16:18:18;19.58;;;7.78;;
73456;SDS011;61691;53.072;6.582;2022-12-18T16:20:45;19.08;;;7.95;;
73456;SDS011;61691;53.072;6.582;2022-12-18T16:23:12;19.63;;;7.93;;
73456;SDS011;61691;53.072;6.582;2022-12-18T16:25:39;20.98;;;8.02;;
73456;SDS011;61691;53.072;6.582;2022-12-18T16:28:06;20.40;;;7.72;;
73456;SDS011;61691;53.072;6.582;2022-12-18T16:30:32;20.70;;;8.38;;
73456;SDS011;61691;53.072;6.582;2022-12-18T16:33:03;19.08;;;7.97;;
73456;SDS011;61691;53.072;6.582;2022-12-18T16:35:32;21.35;;;9.25;;
73456;SDS011;61691;53.072;6.582;2022-12-18T16:38:00;19.70;;;7.90;;
73456;SDS011;61691;53.072;6.582;2022-12-18T16:40:27;20.40;;;7.95;;
73456;SDS011;61691;53.072;6.582;2022-12-18T16:42:54;19.85;;;7.63;;
73456;SDS011;61691;53.072;6.582;2022-12-18T16:45:20;20.83;;;8.02;;
73456;SDS011;61691;53.072;6.582;2022-12-18T16:47:47;21.33;;;8.20;;
73456;SDS011;61691;53.072;6.582;2022-12-18T16:50:14;22.38;;;9.23;;
73456;SDS011;61691;53.072;6.582;2022-12-18T16:52:41;21.33;;;8.43;;
73456;SDS011;61691;53.072;6.582;2022-12-18T16:55:08;21.38;;;8.18;;